Orfordville, Wisconsin
Current Conditions -  °F | °C
As of 7:00 AM on Wednesday 22 Oct 2014 (Local Time) from KJVL Reporting Station
Moderate Fog Moderate Fog  
Wind Chill: 28°   Ceiling: 200
Heat Index: 28°   Visibility: 0.5mi
Dew Point: 27°   Wind: 0mph
Humidity: 93%   Direction: NA
Pressure: 30.33"   Gusts: NA
Location:  42.63°N, 89.25°W
Report Text: KJVL 221200Z 00000KT 1/2SM FZFG VV002 M02/M03 A3033
Loading
Personal Weather Stations






























Interactive Weather Map
Tropical Storm Tracking
New forecast layout! Learn more

10-Day Weather Forecast

Advertisements
Track Severe Weather on mobile